6OK4 weather

Hillcrest Medical Center Heliport
Tulsa, Oklahoma, United States

Public forecast

Using degrees Fahrenheit for public forecast. Weather courtesy of forecast.io.

METAR (pilot weather report)

Closest report is Tulsa International Airport, 5.0 nm (9.2 km) NE. Retrieved 2019/04/26 14:53 UTC (23 minutes ago):

KTUL 261453Z 01006KT 10SM CLR 19/08 A3017 RMK AO2 SLP210 T01940078 51009

TAF (pilot weather forecast)

Closest forecast is Tulsa International Airport, 5.0 nm (9.2 km) NE. Retrieved 2019/04/26 12:22 UTC (3 hours ago):

TAF KTUL 261120Z 2612/2712 00000KT P6SM FEW250 FM262000 14006KT P6SM SCT250 FM270700 19010KT P6SM BKN100